createdAt,value
2022-08-02T00:01:23.139Z,3.00
2022-08-02T00:03:51.188Z,2.90
2022-08-02T00:06:20.693Z,2.78
2022-08-02T00:08:48.889Z,3.13
2022-08-02T00:11:16.929Z,3.35
2022-08-02T00:13:44.990Z,3.53
2022-08-02T00:16:17.010Z,2.55
2022-08-02T00:18:45.400Z,3.40
2022-08-02T00:21:13.419Z,2.67
2022-08-02T00:23:44.204Z,2.80
2022-08-02T00:26:31.925Z,3.33
2022-08-02T00:28:59.883Z,3.10
2022-08-02T00:31:27.863Z,3.45
2022-08-02T00:34:27.246Z,2.95
2022-08-02T00:36:43.959Z,2.85
2022-08-02T00:39:35.032Z,3.10
2022-08-02T00:42:01.556Z,3.05
2022-08-02T00:44:29.532Z,3.25
2022-08-02T00:46:57.626Z,3.20
2022-08-02T00:49:25.727Z,2.95
2022-08-02T00:51:53.965Z,2.22
2022-08-02T00:54:26.916Z,3.13
2022-08-02T00:56:54.914Z,2.60
2022-08-02T00:59:23.145Z,3.03
2022-08-02T01:01:55.839Z,2.45
2022-08-02T01:04:31.296Z,2.67
2022-08-02T01:07:00.793Z,2.97
2022-08-02T01:09:30.517Z,2.78
2022-08-02T01:11:59.044Z,2.88
2022-08-02T01:14:31.079Z,2.72
2022-08-02T01:17:03.334Z,2.67
2022-08-02T01:19:41.063Z,2.50
2022-08-02T01:23:00.105Z,2.70
2022-08-02T01:28:18.549Z,2.60
2022-08-02T01:30:48.029Z,2.60
2022-08-02T01:33:19.498Z,2.70
2022-08-02T01:35:53.891Z,2.55
2022-08-02T01:38:25.349Z,3.03
2022-08-02T01:40:55.116Z,2.97
2022-08-02T01:43:25.807Z,3.10
2022-08-02T01:45:54.609Z,2.60
2022-08-02T01:48:23.382Z,3.00
2022-08-02T01:50:52.604Z,3.25
2022-08-02T01:53:21.868Z,3.22
2022-08-02T01:55:56.845Z,3.28
2022-08-02T01:58:29.867Z,3.63
2022-08-02T02:00:58.977Z,2.92
2022-08-02T02:03:28.797Z,3.35
2022-08-02T02:05:58.424Z,2.80
2022-08-02T02:08:30.182Z,3.05
2022-08-02T02:12:09.310Z,3.45
2022-08-02T02:13:49.046Z,3.20
2022-08-02T02:16:20.924Z,3.72
2022-08-02T02:18:51.228Z,3.17
2022-08-02T02:21:19.296Z,3.00
2022-08-02T02:23:47.572Z,3.60
2022-08-02T02:26:27.640Z,2.85
2022-08-02T02:29:01.220Z,3.05
2022-08-02T02:31:31.216Z,3.00
2022-08-02T02:34:02.613Z,3.50
2022-08-02T02:36:31.276Z,2.92
2022-08-02T02:39:01.455Z,2.58
2022-08-02T02:41:31.183Z,2.95
2022-08-02T02:44:02.970Z,2.97
2022-08-02T02:46:31.724Z,2.83
2022-08-02T02:49:00.625Z,2.78
2022-08-02T02:51:28.834Z,2.75
2022-08-02T02:54:31.987Z,2.63
2022-08-02T02:56:45.660Z,2.83
2022-08-02T02:59:15.876Z,2.65
2022-08-02T03:01:56.852Z,3.35
2022-08-02T03:04:26.688Z,3.28
2022-08-02T03:06:54.768Z,3.20
2022-08-02T03:09:22.840Z,3.42
2022-08-02T03:11:50.887Z,3.47
2022-08-02T03:14:20.359Z,3.30
2022-08-02T03:16:51.178Z,3.28
2022-08-02T03:19:20.044Z,3.80
2022-08-02T03:21:57.504Z,3.55
2022-08-02T03:24:28.317Z,3.85
2022-08-02T03:26:56.636Z,3.83
2022-08-02T03:29:26.128Z,3.60
2022-08-02T03:31:54.504Z,3.22
2022-08-02T03:34:22.764Z,3.85
2022-08-02T03:36:54.017Z,3.50
2022-08-02T03:39:22.222Z,3.53
2022-08-02T03:41:50.764Z,3.63
2022-08-02T03:44:19.174Z,3.40
2022-08-02T03:46:48.684Z,4.63
2022-08-02T03:49:18.550Z,3.53
2022-08-02T03:51:46.893Z,3.10
2022-08-02T03:54:15.234Z,3.63
2022-08-02T03:56:43.531Z,3.30
2022-08-02T03:59:14.573Z,3.08
2022-08-02T04:01:43.121Z,3.60
2022-08-02T04:04:12.527Z,3.60
2022-08-02T04:06:43.493Z,3.53
2022-08-02T04:09:16.282Z,3.50
2022-08-02T04:11:46.940Z,3.25
2022-08-02T04:14:14.994Z,3.75
2022-08-02T04:16:44.666Z,3.78
2022-08-02T04:19:18.292Z,4.13
2022-08-02T04:21:51.506Z,4.07
2022-08-02T04:24:24.807Z,3.85
2022-08-02T04:27:49.035Z,3.80
2022-08-02T04:29:55.234Z,3.17
2022-08-02T04:32:23.892Z,3.85
2022-08-02T04:35:18.232Z,3.50
2022-08-02T04:38:09.415Z,3.70
2022-08-02T04:40:32.688Z,3.70
2022-08-02T04:43:01.675Z,3.10
2022-08-02T04:45:31.195Z,3.80
2022-08-02T04:48:04.948Z,3.78
2022-08-02T04:50:35.246Z,3.80
2022-08-02T04:53:03.537Z,3.70
2022-08-02T04:55:31.530Z,3.88
2022-08-02T04:58:06.639Z,3.60
2022-08-02T05:00:42.368Z,4.60
2022-08-02T05:03:11.208Z,3.58
2022-08-02T05:05:41.112Z,3.95
2022-08-02T05:08:09.198Z,4.05
2022-08-02T05:10:39.873Z,4.38
2022-08-02T05:13:07.926Z,4.05
2022-08-02T05:15:38.956Z,3.58
2022-08-02T05:18:07.233Z,4.25
2022-08-02T05:20:35.377Z,3.95
2022-08-02T05:23:05.212Z,4.10
2022-08-02T05:25:33.572Z,3.80
2022-08-02T05:28:01.654Z,4.15
2022-08-02T05:30:29.837Z,4.07
2022-08-02T05:33:01.291Z,3.55
2022-08-02T05:35:29.442Z,3.95
2022-08-02T05:37:57.807Z,3.33
2022-08-02T05:40:27.462Z,3.17
2022-08-02T05:42:56.626Z,3.20
2022-08-02T05:45:24.824Z,2.67
2022-08-02T05:47:53.213Z,2.78
2022-08-02T05:50:21.766Z,3.05
2022-08-02T05:52:58.172Z,3.05
2022-08-02T05:55:29.571Z,3.03
2022-08-02T05:58:04.741Z,2.70
2022-08-02T06:00:35.385Z,3.08
2022-08-02T06:03:20.134Z,2.80
2022-08-02T06:05:53.134Z,2.30
2022-08-02T06:08:22.336Z,2.72
2022-08-02T06:10:53.641Z,2.25
2022-08-02T06:13:21.925Z,2.40
2022-08-02T06:15:53.982Z,2.75
2022-08-02T06:18:27.970Z,2.72
2022-08-02T06:20:58.642Z,2.25
2022-08-02T06:23:29.010Z,2.53
2022-08-02T06:25:58.802Z,2.97
2022-08-02T06:28:27.583Z,2.67
2022-08-02T06:30:56.041Z,2.40
2022-08-02T06:33:25.017Z,2.33
2022-08-02T06:35:57.660Z,3.40
2022-08-02T06:38:32.706Z,3.10
2022-08-02T06:41:06.464Z,2.35
2022-08-02T06:43:42.309Z,2.70
2022-08-02T06:46:38.023Z,2.63
2022-08-02T06:48:58.716Z,2.50
2022-08-02T06:51:26.738Z,3.10
2022-08-02T06:53:54.777Z,2.83
2022-08-02T06:56:24.289Z,3.08
2022-08-02T06:58:52.595Z,2.65
2022-08-02T07:01:21.075Z,3.30
2022-08-02T07:03:49.259Z,2.85
2022-08-02T07:06:17.337Z,3.05
2022-08-02T07:09:04.940Z,3.30
2022-08-02T07:11:36.211Z,3.72
2022-08-02T07:14:05.044Z,3.22
2022-08-02T07:16:34.663Z,3.67
2022-08-02T07:19:03.742Z,4.22
2022-08-02T07:21:57.600Z,3.67
2022-08-02T07:24:21.818Z,3.75
2022-08-02T07:27:10.814Z,3.47
2022-08-02T07:29:46.858Z,3.42
2022-08-02T07:32:16.248Z,3.92
2022-08-02T07:34:51.305Z,3.58
2022-08-02T07:37:35.427Z,3.63
2022-08-02T07:40:14.007Z,4.07
2022-08-02T07:42:45.096Z,4.10
2022-08-02T07:45:14.383Z,3.72
2022-08-02T07:47:43.419Z,4.75
2022-08-02T07:50:12.223Z,4.28
2022-08-02T07:52:41.237Z,4.70
2022-08-02T07:55:10.946Z,5.43
2022-08-02T07:57:44.076Z,5.65
2022-08-02T08:00:17.809Z,5.32
2022-08-02T08:02:46.536Z,6.88
2022-08-02T08:05:15.217Z,7.03
2022-08-02T08:07:43.606Z,8.05
2022-08-02T08:10:11.998Z,7.28
2022-08-02T08:12:40.163Z,6.75
2022-08-02T08:15:09.172Z,6.45
2022-08-02T08:17:38.914Z,5.90
2022-08-02T08:20:08.871Z,5.95
2022-08-02T08:22:38.816Z,6.57
2022-08-02T08:25:08.440Z,6.07
2022-08-02T08:27:36.395Z,6.13
2022-08-02T08:30:05.477Z,6.68
2022-08-02T08:32:33.660Z,7.32
2022-08-02T08:35:03.942Z,6.88
2022-08-02T08:37:35.616Z,7.07
2022-08-02T08:40:05.218Z,6.45
2022-08-02T08:42:33.860Z,7.65
2022-08-02T08:45:01.943Z,6.90
2022-08-02T08:47:35.097Z,6.60
2022-08-02T08:50:06.165Z,7.90
2022-08-02T08:52:38.362Z,6.55
2022-08-02T08:55:07.125Z,6.00
2022-08-02T08:57:36.669Z,5.60
2022-08-02T09:00:05.873Z,5.35
2022-08-02T09:02:34.915Z,5.55
2022-08-02T09:05:04.483Z,5.68
2022-08-02T09:07:32.632Z,4.85
2022-08-02T09:10:00.567Z,4.95
2022-08-02T09:12:28.579Z,4.57
2022-08-02T09:14:56.724Z,4.40
2022-08-02T09:17:24.772Z,4.25
2022-08-02T09:20:09.488Z,3.70
2022-08-02T09:22:37.557Z,4.25
2022-08-02T09:25:18.753Z,4.22
2022-08-02T09:27:49.641Z,4.32
2022-08-02T09:30:18.093Z,4.07
2022-08-02T09:32:47.851Z,4.18
2022-08-02T09:36:06.690Z,4.78
2022-08-02T09:38:21.091Z,4.60
2022-08-02T09:40:49.153Z,5.18
2022-08-02T09:43:17.538Z,4.75
2022-08-02T09:45:45.553Z,5.03
2022-08-02T09:48:14.238Z,5.30
2022-08-02T09:50:46.348Z,5.10
2022-08-02T09:53:15.032Z,5.00
2022-08-02T09:55:43.365Z,4.90
2022-08-02T09:58:21.126Z,5.25
2022-08-02T10:00:55.913Z,5.70
2022-08-02T10:03:24.489Z,5.35
2022-08-02T10:08:33.050Z,5.30
2022-08-02T10:11:02.469Z,5.13
2022-08-02T10:13:33.814Z,5.75
2022-08-02T10:16:03.516Z,5.82
2022-08-02T10:18:40.720Z,5.00
2022-08-02T10:21:14.226Z,6.30
2022-08-02T10:23:44.653Z,6.70
2022-08-02T10:26:21.059Z,6.35
2022-08-02T10:28:50.468Z,6.90
2022-08-02T10:31:22.180Z,6.63
2022-08-02T10:33:52.912Z,6.15
2022-08-02T10:36:23.663Z,5.72
2022-08-02T10:38:51.825Z,6.50
2022-08-02T10:41:41.127Z,6.88
2022-08-02T10:44:24.999Z,6.22
2022-08-02T10:46:53.619Z,5.88
2022-08-02T10:49:39.606Z,5.93
2022-08-02T10:52:15.268Z,4.53
2022-08-02T10:54:44.755Z,4.00
2022-08-02T10:57:18.541Z,4.47
2022-08-02T10:59:46.841Z,4.25
2022-08-02T11:02:15.252Z,4.72
2022-08-02T11:05:03.708Z,4.93
2022-08-02T11:07:38.906Z,4.63
2022-08-02T11:10:29.180Z,5.75
2022-08-02T11:13:03.459Z,4.80
2022-08-02T11:15:31.904Z,4.47
2022-08-02T11:18:00.324Z,3.53
2022-08-02T11:20:28.869Z,3.35
2022-08-02T11:23:44.398Z,3.88
2022-08-02T11:26:44.777Z,3.78
2022-08-02T11:29:15.601Z,4.40
2022-08-02T11:31:46.071Z,3.80
2022-08-02T11:34:36.583Z,3.78
2022-08-02T11:37:02.980Z,3.60
2022-08-02T11:39:32.387Z,2.60
2022-08-02T11:42:01.582Z,3.10
2022-08-02T11:44:30.775Z,2.90
2022-08-02T11:46:59.813Z,2.80
2022-08-02T11:49:28.589Z,3.25
2022-08-02T11:52:00.327Z,2.40
2022-08-02T11:54:30.383Z,2.70
2022-08-02T11:57:19.851Z,3.30
2022-08-02T11:59:53.671Z,3.28
2022-08-02T12:02:22.892Z,3.58
2022-08-02T12:04:58.127Z,3.70
2022-08-02T12:07:34.550Z,3.50
2022-08-02T12:10:05.984Z,3.53
2022-08-02T12:12:35.543Z,3.55
2022-08-02T12:15:03.575Z,3.67
2022-08-02T12:17:48.915Z,3.50
2022-08-02T12:20:17.647Z,3.40
2022-08-02T12:22:45.981Z,2.92
2022-08-02T12:25:34.294Z,4.20
2022-08-02T12:28:18.497Z,3.50
2022-08-02T12:30:58.008Z,3.30
2022-08-02T12:33:36.548Z,3.33
2022-08-02T12:36:16.378Z,2.80
2022-08-02T12:38:52.776Z,3.70
2022-08-02T12:41:31.870Z,3.35
2022-08-02T12:44:02.306Z,3.65
2022-08-02T12:46:31.449Z,3.50
2022-08-02T12:49:18.601Z,2.70
2022-08-02T12:51:57.729Z,2.60
2022-08-02T12:54:32.491Z,2.70
2022-08-02T12:57:11.614Z,3.08
2022-08-02T12:59:42.487Z,2.65
2022-08-02T13:02:12.669Z,2.65
2022-08-02T13:04:41.766Z,3.28
2022-08-02T13:07:20.704Z,2.78
2022-08-02T13:09:50.081Z,2.25
2022-08-02T13:12:18.486Z,2.80
2022-08-02T13:14:48.320Z,3.00
2022-08-02T13:17:16.500Z,2.70
2022-08-02T13:19:44.727Z,2.70
2022-08-02T13:22:13.368Z,2.75
2022-08-02T13:24:56.580Z,2.38
2022-08-02T13:27:26.177Z,2.00
2022-08-02T13:29:56.843Z,2.25
2022-08-02T13:32:27.991Z,2.90
2022-08-02T13:34:57.172Z,5.03
2022-08-02T13:37:25.878Z,2.75
2022-08-02T13:40:20.093Z,2.38
2022-08-02T13:42:42.666Z,2.25
2022-08-02T13:45:14.090Z,2.40
2022-08-02T13:48:03.671Z,2.15
2022-08-02T13:50:32.745Z,2.70
2022-08-02T13:53:00.775Z,2.70
2022-08-02T13:55:29.125Z,2.58
2022-08-02T13:57:57.331Z,2.50
2022-08-02T14:00:35.089Z,2.40
2022-08-02T14:03:07.489Z,2.30
2022-08-02T14:05:47.623Z,2.92
2022-08-02T14:08:18.042Z,2.38
2022-08-02T14:10:46.743Z,2.50
2022-08-02T14:13:14.920Z,2.58
2022-08-02T14:15:44.840Z,2.78
2022-08-02T14:18:14.723Z,2.40
2022-08-02T14:20:43.251Z,3.00
2022-08-02T14:23:11.423Z,2.88
2022-08-02T14:25:39.395Z,2.60
2022-08-02T14:28:07.702Z,2.10
2022-08-02T14:30:36.115Z,2.33
2022-08-02T14:33:06.037Z,2.40
2022-08-02T14:35:34.298Z,2.15
2022-08-02T14:38:02.514Z,2.40
2022-08-02T14:40:31.956Z,2.20
2022-08-02T14:43:00.878Z,2.22
2022-08-02T14:45:40.059Z,2.25
2022-08-02T14:48:11.918Z,2.40
2022-08-02T14:50:40.299Z,2.00
2022-08-02T14:53:11.898Z,1.65
2022-08-02T14:55:41.634Z,1.80
2022-08-02T14:58:09.751Z,2.25
2022-08-02T15:00:40.842Z,2.35
2022-08-02T15:03:16.693Z,2.10
2022-08-02T15:05:44.726Z,1.70
2022-08-02T15:08:17.052Z,2.35
2022-08-02T15:10:45.400Z,2.10
2022-08-02T15:13:13.677Z,2.00
2022-08-02T15:15:43.554Z,1.85
2022-08-02T15:18:13.753Z,2.25
2022-08-02T15:20:42.511Z,1.70
2022-08-02T15:23:18.473Z,1.80
2022-08-02T15:25:46.661Z,2.08
2022-08-02T15:28:14.673Z,1.85
2022-08-02T15:30:42.676Z,1.88
2022-08-02T15:33:10.753Z,1.88
2022-08-02T15:35:40.255Z,1.83
2022-08-02T15:38:08.588Z,2.58
2022-08-02T15:40:36.677Z,2.10
2022-08-02T15:43:04.679Z,1.90
2022-08-02T15:45:32.771Z,2.05
2022-08-02T15:48:00.845Z,1.80
2022-08-02T15:50:33.448Z,2.08
2022-08-02T15:53:03.642Z,2.10
2022-08-02T15:55:40.031Z,1.85
2022-08-02T15:58:22.735Z,1.63
2022-08-02T16:00:51.662Z,1.80
2022-08-02T16:03:20.082Z,1.77
2022-08-02T16:05:48.260Z,1.90
2022-08-02T16:08:17.796Z,1.52
2022-08-02T16:10:45.945Z,1.48
2022-08-02T16:13:31.505Z,2.00
2022-08-02T16:15:59.555Z,1.90
2022-08-02T16:18:27.562Z,1.60
2022-08-02T16:20:55.729Z,1.90
2022-08-02T16:24:01.969Z,1.88
2022-08-02T16:26:17.459Z,2.35
2022-08-02T16:28:49.761Z,2.35
2022-08-02T16:31:17.886Z,1.60
2022-08-02T16:33:46.175Z,1.80
2022-08-02T16:36:15.003Z,1.80
2022-08-02T16:38:48.977Z,1.67
2022-08-02T16:41:17.087Z,1.58
2022-08-02T16:43:46.279Z,2.28
2022-08-02T16:46:14.345Z,1.80
2022-08-02T16:48:51.329Z,1.60
2022-08-02T16:51:21.275Z,1.42
2022-08-02T16:53:59.725Z,1.88
2022-08-02T16:56:29.423Z,1.60
2022-08-02T16:59:00.076Z,1.70
2022-08-02T17:02:10.856Z,1.73
2022-08-02T17:04:19.255Z,2.10
2022-08-02T17:06:52.114Z,1.85
2022-08-02T17:10:03.900Z,1.70
2022-08-02T17:12:16.155Z,1.75
2022-08-02T17:14:59.491Z,1.65
2022-08-02T17:17:33.643Z,1.70
2022-08-02T17:20:02.499Z,1.63
2022-08-02T17:22:30.567Z,1.77
2022-08-02T17:25:07.255Z,1.77
2022-08-02T17:27:39.485Z,2.05
2022-08-02T17:30:10.876Z,2.03
2022-08-02T17:32:39.292Z,1.85
2022-08-02T17:35:10.031Z,2.15
2022-08-02T17:37:41.672Z,2.00
2022-08-02T17:40:12.089Z,1.80
2022-08-02T17:42:47.852Z,2.47
2022-08-02T17:48:05.728Z,1.30
2022-08-02T17:50:34.258Z,2.10
2022-08-02T17:53:02.960Z,2.40
2022-08-02T17:55:33.199Z,2.03
2022-08-02T17:58:01.194Z,2.22
2022-08-02T18:00:34.247Z,1.92
2022-08-02T18:03:05.789Z,1.85
2022-08-02T18:05:40.192Z,2.00
2022-08-02T18:08:23.288Z,1.70
2022-08-02T18:10:54.228Z,1.80
2022-08-02T18:13:22.275Z,2.13
2022-08-02T18:15:52.307Z,1.52
2022-08-02T18:18:29.172Z,1.98
2022-08-02T18:20:58.347Z,1.80
2022-08-02T18:23:26.458Z,2.25
2022-08-02T18:25:56.892Z,2.22
2022-08-02T18:28:26.674Z,1.90
2022-08-02T18:30:55.141Z,2.70
2022-08-02T18:33:58.737Z,2.20
2022-08-02T18:36:25.104Z,2.28
2022-08-02T18:38:53.551Z,2.33
2022-08-02T18:41:24.978Z,2.08
2022-08-02T18:43:57.012Z,2.00
2022-08-02T18:46:30.182Z,2.17
2022-08-02T18:49:13.492Z,1.55
2022-08-02T18:51:44.251Z,1.63
2022-08-02T18:54:12.589Z,1.88
2022-08-02T18:56:47.176Z,1.75
2022-08-02T18:59:17.286Z,1.70
2022-08-02T19:01:50.893Z,1.40
2022-08-02T19:04:27.818Z,1.95
2022-08-02T19:07:01.668Z,1.95
2022-08-02T19:09:35.445Z,1.67
2022-08-02T19:12:05.565Z,1.40
2022-08-02T19:14:33.580Z,1.80
2022-08-02T19:17:16.075Z,2.13
2022-08-02T19:19:51.295Z,1.77
2022-08-02T19:22:26.897Z,2.00
2022-08-02T19:25:01.019Z,1.63
2022-08-02T19:27:32.550Z,2.00
2022-08-02T19:30:20.315Z,1.88
2022-08-02T19:32:59.004Z,1.90
2022-08-02T19:35:31.454Z,1.80
2022-08-02T19:38:10.216Z,2.13
2022-08-02T19:40:38.907Z,1.95
2022-08-02T19:44:23.662Z,1.95
2022-08-02T19:45:59.514Z,2.13
2022-08-02T19:48:28.296Z,1.73
2022-08-02T19:51:01.118Z,2.10
2022-08-02T19:53:48.144Z,1.73
2022-08-02T19:56:20.555Z,2.00
2022-08-02T19:58:51.358Z,1.77
2022-08-02T20:01:25.323Z,2.05
2022-08-02T20:03:59.202Z,1.50
2022-08-02T20:06:29.293Z,2.17
2022-08-02T20:08:59.142Z,2.17
2022-08-02T20:11:35.374Z,2.45
2022-08-02T20:14:08.289Z,2.70
2022-08-02T20:16:36.971Z,1.73
2022-08-02T20:19:10.393Z,2.00
2022-08-02T20:21:55.518Z,2.17
2022-08-02T20:24:46.832Z,1.70
2022-08-02T20:27:23.009Z,1.52
2022-08-02T20:29:53.783Z,1.73
2022-08-02T20:32:24.792Z,2.03
2022-08-02T20:34:55.128Z,2.30
2022-08-02T20:38:00.674Z,1.77
2022-08-02T20:40:16.764Z,1.90
2022-08-02T20:42:47.736Z,1.70
2022-08-02T20:45:18.741Z,1.83
2022-08-02T20:47:50.952Z,3.58
2022-08-02T20:50:37.343Z,2.15
2022-08-02T20:53:07.026Z,1.90
2022-08-02T20:55:36.875Z,2.05
2022-08-02T20:58:06.235Z,1.75
2022-08-02T21:00:42.332Z,2.40
2022-08-02T21:03:11.773Z,1.55
2022-08-02T21:05:55.864Z,1.60
2022-08-02T21:08:25.339Z,1.50
2022-08-02T21:10:55.567Z,1.80
2022-08-02T21:13:26.080Z,1.40
2022-08-02T21:15:59.427Z,1.42
2022-08-02T21:18:39.773Z,1.48
2022-08-02T21:21:09.917Z,1.65
2022-08-02T21:23:38.528Z,5.05
2022-08-02T21:26:19.732Z,2.45
2022-08-02T21:28:54.159Z,1.67
2022-08-02T21:31:24.090Z,1.65
2022-08-02T21:34:00.289Z,1.55
2022-08-02T21:36:32.549Z,1.40
2022-08-02T21:39:04.931Z,1.65
2022-08-02T21:41:38.971Z,1.45
2022-08-02T21:44:15.823Z,1.55
2022-08-02T21:46:45.837Z,1.60
2022-08-02T21:49:14.614Z,1.63
2022-08-02T21:51:49.544Z,2.08
2022-08-02T21:54:20.368Z,1.50
2022-08-02T21:56:52.036Z,1.92
2022-08-02T21:59:25.964Z,1.40
2022-08-02T22:01:57.387Z,1.67
2022-08-02T22:04:26.560Z,1.77
2022-08-02T22:06:55.154Z,1.67
2022-08-02T22:09:44.205Z,1.75
2022-08-02T22:12:16.662Z,1.70
2022-08-02T22:14:49.610Z,1.65
2022-08-02T22:17:52.638Z,1.50
2022-08-02T22:20:14.085Z,1.25
2022-08-02T22:22:43.637Z,1.58
2022-08-02T22:25:26.584Z,1.70
2022-08-02T22:28:15.760Z,1.67
2022-08-02T22:30:50.581Z,1.50
2022-08-02T22:33:42.509Z,1.40
2022-08-02T22:36:28.507Z,1.38
2022-08-02T22:38:56.816Z,1.40
2022-08-02T22:41:25.093Z,1.30
2022-08-02T22:44:13.428Z,1.55
2022-08-02T22:46:42.878Z,2.03
2022-08-02T22:49:17.643Z,1.38
2022-08-02T22:52:00.288Z,1.30
2022-08-02T22:54:28.535Z,1.33
2022-08-02T22:56:57.688Z,1.20
2022-08-02T22:58:48.781Z,2.30
2022-08-02T22:59:36.440Z,1.73
2022-08-02T23:02:08.268Z,1.77
2022-08-02T23:04:37.708Z,1.60
2022-08-02T23:07:06.064Z,1.85
2022-08-02T23:09:34.200Z,1.50
2022-08-02T23:12:02.252Z,1.75
2022-08-02T23:14:31.451Z,1.40
2022-08-02T23:17:16.864Z,1.70
2022-08-02T23:19:52.071Z,1.95
2022-08-02T23:22:21.723Z,1.63
2022-08-02T23:24:58.342Z,1.67
2022-08-02T23:27:27.348Z,1.90
2022-08-02T23:29:56.074Z,1.98
2022-08-02T23:32:26.038Z,1.90
2022-08-02T23:34:55.983Z,1.92
2022-08-02T23:37:24.355Z,1.90
2022-08-02T23:39:52.627Z,1.90
2022-08-02T23:42:20.681Z,1.77
2022-08-02T23:44:48.673Z,2.03
2022-08-02T23:47:17.093Z,2.45
2022-08-02T23:49:45.185Z,2.15
2022-08-02T23:52:14.943Z,2.10
2022-08-02T23:54:43.720Z,2.38
2022-08-02T23:57:19.656Z,1.80
2022-08-02T23:59:48.051Z,2.20
